sensor_id;sensor_type;location;lat;lon;timestamp;pressure;altitude;pressure_sealevel;temperature;humidity
81033;BME280;70514;52.478;6.102;2024-03-17T00:01:03;102510.13;;;2.83;100.00
81033;BME280;70514;52.478;6.102;2024-03-17T00:03:30;102498.66;;;2.64;100.00
81033;BME280;70514;52.478;6.102;2024-03-17T00:05:57;102494.56;;;2.54;100.00
81033;BME280;70514;52.478;6.102;2024-03-17T00:08:24;102496.03;;;2.50;100.00
81033;BME280;70514;52.478;6.102;2024-03-17T00:10:51;102499.28;;;2.48;100.00
81033;BME280;70514;52.478;6.102;2024-03-17T00:13:18;102491.34;;;2.43;100.00
81033;BME280;70514;52.478;6.102;2024-03-17T00:15:45;102488.69;;;2.42;100.00
81033;BME280;70514;52.478;6.102;2024-03-17T00:18:11;102485.16;;;2.40;100.00
81033;BME280;70514;52.478;6.102;2024-03-17T00:20:37;102485.16;;;2.40;100.00
81033;BME280;70514;52.478;6.102;2024-03-17T00:23:07;102488.47;;;2.39;100.00
81033;BME280;70514;52.478;6.102;2024-03-17T00:25:35;102479.88;;;2.37;100.00
81033;BME280;70514;52.478;6.102;2024-03-17T00:28:02;102477.91;;;2.33;100.00
81033;BME280;70514;52.478;6.102;2024-03-17T00:30:29;102474.56;;;2.34;100.00
81033;BME280;70514;52.478;6.102;2024-03-17T00:32:55;102476.03;;;2.30;100.00
81033;BME280;70514;52.478;6.102;2024-03-17T00:35:22;102468.28;;;2.29;100.00
81033;BME280;70514;52.478;6.102;2024-03-17T00:37:48;102468.88;;;2.25;100.00
81033;BME280;70514;52.478;6.102;2024-03-17T00:40:15;102474.53;;;2.21;100.00
81033;BME280;70514;52.478;6.102;2024-03-17T00:42:42;102479.28;;;2.16;100.00
81033;BME280;70514;52.478;6.102;2024-03-17T00:45:09;102477.72;;;2.18;100.00
81033;BME280;70514;52.478;6.102;2024-03-17T00:47:36;102470.00;;;2.17;100.00
81033;BME280;70514;52.478;6.102;2024-03-17T00:50:03;102486.03;;;2.16;100.00
81033;BME280;70514;52.478;6.102;2024-03-17T00:52:31;102474.78;;;2.12;100.00
81033;BME280;70514;52.478;6.102;2024-03-17T00:54:57;102468.59;;;2.08;100.00
81033;BME280;70514;52.478;6.102;2024-03-17T00:57:24;102465.09;;;2.06;100.00
81033;BME280;70514;52.478;6.102;2024-03-17T00:59:50;102450.88;;;1.97;100.00
81033;BME280;70514;52.478;6.102;2024-03-17T01:02:18;102461.69;;;1.94;100.00
81033;BME280;70514;52.478;6.102;2024-03-17T01:04:45;102448.78;;;1.91;100.00
81033;BME280;70514;52.478;6.102;2024-03-17T01:07:11;102453.66;;;1.88;100.00
81033;BME280;70514;52.478;6.102;2024-03-17T01:09:38;102447.47;;;1.85;100.00
81033;BME280;70514;52.478;6.102;2024-03-17T01:12:05;102457.69;;;1.98;100.00
81033;BME280;70514;52.478;6.102;2024-03-17T01:14:35;102454.97;;;2.20;100.00
81033;BME280;70514;52.478;6.102;2024-03-17T01:17:01;102456.13;;;2.11;100.00
81033;BME280;70514;52.478;6.102;2024-03-17T01:19:31;102446.91;;;1.89;100.00
81033;BME280;70514;52.478;6.102;2024-03-17T01:21:59;102442.16;;;1.82;100.00
81033;BME280;70514;52.478;6.102;2024-03-17T01:24:26;102440.13;;;1.76;100.00
81033;BME280;70514;52.478;6.102;2024-03-17T01:27:00;102441.84;;;1.77;100.00
81033;BME280;70514;52.478;6.102;2024-03-17T01:29:27;102440.13;;;1.76;100.00
81033;BME280;70514;52.478;6.102;2024-03-17T01:31:54;102446.06;;;1.77;100.00
81033;BME280;70514;52.478;6.102;2024-03-17T01:34:22;102442.09;;;1.80;100.00
81033;BME280;70514;52.478;6.102;2024-03-17T01:36:48;102448.50;;;1.75;100.00
81033;BME280;70514;52.478;6.102;2024-03-17T01:39:15;102440.66;;;1.72;100.00
81033;BME280;70514;52.478;6.102;2024-03-17T01:41:42;102429.53;;;1.70;100.00
81033;BME280;70514;52.478;6.102;2024-03-17T01:44:21;102432.84;;;1.69;100.00
81033;BME280;70514;52.478;6.102;2024-03-17T01:46:48;102430.63;;;1.74;100.00
81033;BME280;70514;52.478;6.102;2024-03-17T01:49:14;102433.59;;;1.68;100.00
81033;BME280;70514;52.478;6.102;2024-03-17T01:51:40;102434.28;;;1.65;100.00
81033;BME280;70514;52.478;6.102;2024-03-17T01:54:08;102430.75;;;1.63;100.00
81033;BME280;70514;52.478;6.102;2024-03-17T01:56:34;102426.75;;;1.67;100.00
81033;BME280;70514;52.478;6.102;2024-03-17T01:59:01;102423.13;;;1.63;100.00
81033;BME280;70514;52.478;6.102;2024-03-17T02:01:27;102426.31;;;1.73;100.00
81033;BME280;70514;52.478;6.102;2024-03-17T02:03:54;102417.81;;;1.72;100.00
81033;BME280;70514;52.478;6.102;2024-03-17T02:06:20;102421.03;;;1.69;100.00
81033;BME280;70514;52.478;6.102;2024-03-17T02:08:50;102415.19;;;1.70;100.00
81033;BME280;70514;52.478;6.102;2024-03-17T02:11:27;102419.84;;;1.64;100.00
81033;BME280;70514;52.478;6.102;2024-03-17T02:13:54;102414.94;;;1.67;100.00
81033;BME280;70514;52.478;6.102;2024-03-17T02:16:20;102416.09;;;1.59;100.00
81033;BME280;70514;52.478;6.102;2024-03-17T02:18:47;102411.22;;;1.62;100.00
81033;BME280;70514;52.478;6.102;2024-03-17T02:21:14;102412.97;;;1.63;100.00
81033;BME280;70514;52.478;6.102;2024-03-17T02:23:42;102414.84;;;1.66;100.00
81033;BME280;70514;52.478;6.102;2024-03-17T02:26:08;102414.31;;;1.70;100.00
81033;BME280;70514;52.478;6.102;2024-03-17T02:28:41;102406.13;;;1.74;100.00
81033;BME280;70514;52.478;6.102;2024-03-17T02:31:09;102405.97;;;1.84;100.00
81033;BME280;70514;52.478;6.102;2024-03-17T02:33:36;102398.34;;;1.84;100.00
81033;BME280;70514;52.478;6.102;2024-03-17T02:36:03;102402.19;;;1.91;100.00
81033;BME280;70514;52.478;6.102;2024-03-17T02:38:30;102404.72;;;1.91;100.00
81033;BME280;70514;52.478;6.102;2024-03-17T02:41:16;102398.75;;;1.90;100.00
81033;BME280;70514;52.478;6.102;2024-03-17T02:43:42;102393.88;;;1.93;100.00
81033;BME280;70514;52.478;6.102;2024-03-17T02:46:10;102392.44;;;1.97;100.00
81033;BME280;70514;52.478;6.102;2024-03-17T02:48:38;102394.00;;;1.95;100.00
81033;BME280;70514;52.478;6.102;2024-03-17T02:51:11;102387.22;;;2.58;100.00
81033;BME280;70514;52.478;6.102;2024-03-17T02:53:38;102389.44;;;2.40;100.00
81033;BME280;70514;52.478;6.102;2024-03-17T02:56:05;102393.75;;;2.41;100.00
81033;BME280;70514;52.478;6.102;2024-03-17T02:58:36;102390.31;;;2.54;100.00
81033;BME280;70514;52.478;6.102;2024-03-17T03:01:03;102382.69;;;2.54;100.00
81033;BME280;70514;52.478;6.102;2024-03-17T03:03:30;102398.47;;;2.24;100.00
81033;BME280;70514;52.478;6.102;2024-03-17T03:05:57;102395.59;;;2.44;100.00
81033;BME280;70514;52.478;6.102;2024-03-17T03:08:24;102402.13;;;2.27;100.00
81033;BME280;70514;52.478;6.102;2024-03-17T03:10:51;102401.50;;;2.18;100.00
81033;BME280;70514;52.478;6.102;2024-03-17T03:13:17;102390.59;;;2.32;100.00
81033;BME280;70514;52.478;6.102;2024-03-17T03:15:48;102390.06;;;2.11;100.00
81033;BME280;70514;52.478;6.102;2024-03-17T03:18:15;102389.22;;;1.99;100.00
81033;BME280;70514;52.478;6.102;2024-03-17T03:20:42;102385.41;;;2.18;100.00
81033;BME280;70514;52.478;6.102;2024-03-17T03:23:09;102398.41;;;2.22;100.00
81033;BME280;70514;52.478;6.102;2024-03-17T03:25:36;102392.28;;;2.07;100.00
81033;BME280;70514;52.478;6.102;2024-03-17T03:28:03;102381.31;;;2.33;100.00
81033;BME280;70514;52.478;6.102;2024-03-17T03:30:29;102377.59;;;2.28;100.00
81033;BME280;70514;52.478;6.102;2024-03-17T03:32:56;102382.75;;;2.16;100.00
81033;BME280;70514;52.478;6.102;2024-03-17T03:35:23;102378.53;;;2.17;100.00
81033;BME280;70514;52.478;6.102;2024-03-17T03:37:49;102374.19;;;2.40;100.00
81033;BME280;70514;52.478;6.102;2024-03-17T03:40:16;102380.63;;;2.35;100.00
81033;BME280;70514;52.478;6.102;2024-03-17T03:42:43;102380.34;;;2.31;100.00
81033;BME280;70514;52.478;6.102;2024-03-17T03:45:09;102372.28;;;2.63;100.00
81033;BME280;70514;52.478;6.102;2024-03-17T03:47:42;102373.94;;;2.62;100.00
81033;BME280;70514;52.478;6.102;2024-03-17T03:50:09;102384.50;;;2.94;100.00
81033;BME280;70514;52.478;6.102;2024-03-17T03:52:36;102386.06;;;2.79;100.00
81033;BME280;70514;52.478;6.102;2024-03-17T03:55:06;102379.81;;;3.55;100.00
81033;BME280;70514;52.478;6.102;2024-03-17T03:57:33;102386.78;;;3.44;100.00
81033;BME280;70514;52.478;6.102;2024-03-17T04:00:00;102372.22;;;3.28;100.00
81033;BME280;70514;52.478;6.102;2024-03-17T04:02:27;102374.81;;;3.02;100.00
81033;BME280;70514;52.478;6.102;2024-03-17T04:04:57;102363.09;;;3.45;100.00
81033;BME280;70514;52.478;6.102;2024-03-17T04:07:24;102363.28;;;2.94;100.00
81033;BME280;70514;52.478;6.102;2024-03-17T04:09:50;102358.00;;;2.78;100.00
81033;BME280;70514;52.478;6.102;2024-03-17T04:12:17;102358.59;;;2.74;100.00
81033;BME280;70514;52.478;6.102;2024-03-17T04:14:43;102351.13;;;2.77;100.00
81033;BME280;70514;52.478;6.102;2024-03-17T04:17:11;102354.06;;;2.96;100.00
81033;BME280;70514;52.478;6.102;2024-03-17T04:19:38;102354.28;;;2.99;100.00
81033;BME280;70514;52.478;6.102;2024-03-17T04:22:04;102347.91;;;3.06;100.00
81033;BME280;70514;52.478;6.102;2024-03-17T04:24:30;102349.47;;;2.90;100.00
81033;BME280;70514;52.478;6.102;2024-03-17T04:26:57;102340.75;;;2.87;100.00
81033;BME280;70514;52.478;6.102;2024-03-17T04:29:24;102342.44;;;2.86;100.00
81033;BME280;70514;52.478;6.102;2024-03-17T04:31:51;102333.03;;;2.85;100.00
81033;BME280;70514;52.478;6.102;2024-03-17T04:34:17;102330.59;;;3.00;100.00
81033;BME280;70514;52.478;6.102;2024-03-17T04:36:44;102335.09;;;3.04;100.00
81033;BME280;70514;52.478;6.102;2024-03-17T04:39:10;102331.25;;;2.97;100.00
81033;BME280;70514;52.478;6.102;2024-03-17T04:41:36;102329.72;;;2.99;100.00
81033;BME280;70514;52.478;6.102;2024-03-17T04:44:04;102324.41;;;2.96;100.00
81033;BME280;70514;52.478;6.102;2024-03-17T04:46:32;102326.81;;;3.21;100.00
81033;BME280;70514;52.478;6.102;2024-03-17T04:48:59;102331.16;;;3.09;100.00
81033;BME280;70514;52.478;6.102;2024-03-17T04:51:25;102317.00;;;3.27;100.00
81033;BME280;70514;52.478;6.102;2024-03-17T04:53:52;102311.91;;;3.27;100.00
81033;BME280;70514;52.478;6.102;2024-03-17T04:56:18;102314.63;;;3.43;100.00
81033;BME280;70514;52.478;6.102;2024-03-17T04:58:44;102317.19;;;3.58;100.00
81033;BME280;70514;52.478;6.102;2024-03-17T05:01:11;102313.34;;;3.37;100.00
81033;BME280;70514;52.478;6.102;2024-03-17T05:03:39;102305.03;;;3.67;100.00
81033;BME280;70514;52.478;6.102;2024-03-17T05:06:06;102303.72;;;3.31;100.00
81033;BME280;70514;52.478;6.102;2024-03-17T05:08:33;102301.44;;;3.36;100.00
81033;BME280;70514;52.478;6.102;2024-03-17T05:11:01;102300.72;;;3.66;100.00
81033;BME280;70514;52.478;6.102;2024-03-17T05:13:31;102296.56;;;3.54;100.00
81033;BME280;70514;52.478;6.102;2024-03-17T05:15:57;102305.53;;;3.34;100.00
81033;BME280;70514;52.478;6.102;2024-03-17T05:18:24;102304.13;;;3.52;100.00
81033;BME280;70514;52.478;6.102;2024-03-17T05:20:59;102304.72;;;3.91;100.00
81033;BME280;70514;52.478;6.102;2024-03-17T05:23:29;102301.69;;;3.68;100.00
81033;BME280;70514;52.478;6.102;2024-03-17T05:25:56;102301.22;;;4.33;100.00
81033;BME280;70514;52.478;6.102;2024-03-17T05:28:24;102302.16;;;5.58;100.00
81033;BME280;70514;52.478;6.102;2024-03-17T05:30:50;102309.16;;;4.68;100.00
81033;BME280;70514;52.478;6.102;2024-03-17T05:33:17;102322.41;;;4.92;100.00
81033;BME280;70514;52.478;6.102;2024-03-17T05:35:54;102311.09;;;3.84;100.00
81033;BME280;70514;52.478;6.102;2024-03-17T05:38:21;102307.47;;;3.66;100.00
81033;BME280;70514;52.478;6.102;2024-03-17T05:43:28;102315.00;;;3.92;100.00
81033;BME280;70514;52.478;6.102;2024-03-17T05:45:56;102307.63;;;3.97;100.00
81033;BME280;70514;52.478;6.102;2024-03-17T05:48:23;102314.47;;;3.55;100.00
81033;BME280;70514;52.478;6.102;2024-03-17T05:50:50;102314.84;;;4.04;100.00
81033;BME280;70514;52.478;6.102;2024-03-17T05:53:20;102317.31;;;4.17;100.00
81033;BME280;70514;52.478;6.102;2024-03-17T05:55:47;102317.03;;;3.98;100.00
81033;BME280;70514;52.478;6.102;2024-03-17T05:58:13;102314.41;;;3.68;100.00
81033;BME280;70514;52.478;6.102;2024-03-17T06:00:40;102312.81;;;3.56;100.00
81033;BME280;70514;52.478;6.102;2024-03-17T06:03:07;102308.88;;;3.61;100.00
81033;BME280;70514;52.478;6.102;2024-03-17T06:05:37;102311.72;;;3.80;100.00
81033;BME280;70514;52.478;6.102;2024-03-17T06:08:04;102303.47;;;3.84;100.00
81033;BME280;70514;52.478;6.102;2024-03-17T06:10:32;102291.84;;;3.74;100.00
81033;BME280;70514;52.478;6.102;2024-03-17T06:12:58;102289.94;;;4.00;100.00
81033;BME280;70514;52.478;6.102;2024-03-17T06:15:25;102295.84;;;4.28;100.00
81033;BME280;70514;52.478;6.102;2024-03-17T06:17:52;102300.13;;;4.58;100.00
81033;BME280;70514;52.478;6.102;2024-03-17T06:20:19;102305.09;;;4.86;100.00
81033;BME280;70514;52.478;6.102;2024-03-17T06:22:46;102306.75;;;5.17;100.00
81033;BME280;70514;52.478;6.102;2024-03-17T06:25:12;102301.19;;;4.47;100.00
81033;BME280;70514;52.478;6.102;2024-03-17T06:27:39;102307.53;;;4.10;100.00
81033;BME280;70514;52.478;6.102;2024-03-17T06:30:05;102302.25;;;4.36;100.00
81033;BME280;70514;52.478;6.102;2024-03-17T06:32:33;102304.13;;;4.24;100.00
81033;BME280;70514;52.478;6.102;2024-03-17T06:35:01;102305.00;;;4.39;100.00
81033;BME280;70514;52.478;6.102;2024-03-17T06:37:27;102306.31;;;4.18;100.00
81033;BME280;70514;52.478;6.102;2024-03-17T06:39:54;102300.97;;;4.13;100.00
81033;BME280;70514;52.478;6.102;2024-03-17T06:42:21;102292.06;;;4.21;100.00
81033;BME280;70514;52.478;6.102;2024-03-17T06:44:47;102282.84;;;4.23;100.00
81033;BME280;70514;52.478;6.102;2024-03-17T06:47:14;102287.16;;;4.39;100.00
81033;BME280;70514;52.478;6.102;2024-03-17T06:49:40;102277.88;;;4.41;100.00
81033;BME280;70514;52.478;6.102;2024-03-17T06:52:08;102288.22;;;4.74;100.00
81033;BME280;70514;52.478;6.102;2024-03-17T06:54:34;102303.31;;;5.16;100.00
81033;BME280;70514;52.478;6.102;2024-03-17T06:57:02;102301.59;;;4.69;100.00
81033;BME280;70514;52.478;6.102;2024-03-17T06:59:28;102307.00;;;4.59;100.00
81033;BME280;70514;52.478;6.102;2024-03-17T07:01:54;102304.53;;;4.61;100.00
81033;BME280;70514;52.478;6.102;2024-03-17T07:04:21;102307.25;;;4.95;100.00
81033;BME280;70514;52.478;6.102;2024-03-17T07:06:47;102309.66;;;5.08;100.00
81033;BME280;70514;52.478;6.102;2024-03-17T07:09:14;102303.44;;;5.03;100.00
81033;BME280;70514;52.478;6.102;2024-03-17T07:11:40;102307.94;;;5.39;100.00
81033;BME280;70514;52.478;6.102;2024-03-17T07:14:06;102297.91;;;5.75;100.00
81033;BME280;70514;52.478;6.102;2024-03-17T07:16:33;102303.34;;;5.32;100.00
81033;BME280;70514;52.478;6.102;2024-03-17T07:19:01;102292.81;;;5.59;100.00
81033;BME280;70514;52.478;6.102;2024-03-17T07:21:28;102299.91;;;5.32;100.00
81033;BME280;70514;52.478;6.102;2024-03-17T07:23:54;102307.31;;;5.27;100.00
81033;BME280;70514;52.478;6.102;2024-03-17T07:26:20;102312.44;;;5.27;100.00
81033;BME280;70514;52.478;6.102;2024-03-17T07:28:47;102300.75;;;5.97;100.00
81033;BME280;70514;52.478;6.102;2024-03-17T07:31:13;102301.41;;;5.61;100.00
81033;BME280;70514;52.478;6.102;2024-03-17T07:33:40;102314.50;;;5.67;100.00
81033;BME280;70514;52.478;6.102;2024-03-17T07:36:07;102307.19;;;5.89;100.00
81033;BME280;70514;52.478;6.102;2024-03-17T07:38:34;102302.06;;;5.73;100.00
81033;BME280;70514;52.478;6.102;2024-03-17T07:41:03;102315.38;;;5.83;100.00
81033;BME280;70514;52.478;6.102;2024-03-17T07:43:30;102310.53;;;5.88;100.00
81033;BME280;70514;52.478;6.102;2024-03-17T07:45:58;102304.28;;;5.99;100.00
81033;BME280;70514;52.478;6.102;2024-03-17T07:48:24;102312.63;;;6.13;100.00
81033;BME280;70514;52.478;6.102;2024-03-17T07:50:57;102313.09;;;6.22;100.00
81033;BME280;70514;52.478;6.102;2024-03-17T07:53:24;102307.69;;;6.33;100.00
81033;BME280;70514;52.478;6.102;2024-03-17T07:56:00;102311.28;;;6.90;100.00
81033;BME280;70514;52.478;6.102;2024-03-17T07:58:27;102307.06;;;6.73;100.00
81033;BME280;70514;52.478;6.102;2024-03-17T08:00:57;102303.47;;;6.69;100.00
81033;BME280;70514;52.478;6.102;2024-03-17T08:03:27;102311.91;;;6.67;100.00
81033;BME280;70514;52.478;6.102;2024-03-17T08:05:54;102318.38;;;6.96;100.00
81033;BME280;70514;52.478;6.102;2024-03-17T08:08:20;102315.91;;;6.97;100.00
81033;BME280;70514;52.478;6.102;2024-03-17T08:10:47;102317.66;;;6.98;100.00
81033;BME280;70514;52.478;6.102;2024-03-17T08:13:14;102323.88;;;7.03;100.00
81033;BME280;70514;52.478;6.102;2024-03-17T08:15:44;102323.66;;;7.55;99.08
81033;BME280;70514;52.478;6.102;2024-03-17T08:18:14;102327.44;;;7.44;98.62
81033;BME280;70514;52.478;6.102;2024-03-17T08:20:42;102322.88;;;7.56;100.00
81033;BME280;70514;52.478;6.102;2024-03-17T08:23:09;102325.56;;;7.59;100.00
81033;BME280;70514;52.478;6.102;2024-03-17T08:25:37;102318.09;;;8.43;100.00
81033;BME280;70514;52.478;6.102;2024-03-17T08:28:03;102303.63;;;8.05;95.22
81033;BME280;70514;52.478;6.102;2024-03-17T08:30:30;102308.19;;;7.73;97.01
81033;BME280;70514;52.478;6.102;2024-03-17T08:32:56;102309.97;;;7.74;97.55
81033;BME280;70514;52.478;6.102;2024-03-17T08:35:25;102306.72;;;7.78;96.37
81033;BME280;70514;52.478;6.102;2024-03-17T08:37:52;102308.53;;;7.80;97.70
81033;BME280;70514;52.478;6.102;2024-03-17T08:40:20;102299.94;;;8.20;96.29
81033;BME280;70514;52.478;6.102;2024-03-17T08:42:47;102295.63;;;8.19;94.18
81033;BME280;70514;52.478;6.102;2024-03-17T08:45:14;102297.28;;;8.17;93.88
81033;BME280;70514;52.478;6.102;2024-03-17T08:47:41;102294.81;;;8.39;92.48
81033;BME280;70514;52.478;6.102;2024-03-17T08:50:07;102289.47;;;8.34;93.89
81033;BME280;70514;52.478;6.102;2024-03-17T08:52:34;102295.84;;;8.65;91.33
81033;BME280;70514;52.478;6.102;2024-03-17T08:55:01;102284.97;;;8.49;92.67
81033;BME280;70514;52.478;6.102;2024-03-17T08:57:36;102294.97;;;8.64;91.45
81033;BME280;70514;52.478;6.102;2024-03-17T09:00:02;102296.63;;;9.07;91.00
81033;BME280;70514;52.478;6.102;2024-03-17T09:02:29;102298.91;;;9.21;92.72
81033;BME280;70514;52.478;6.102;2024-03-17T09:04:56;102296.06;;;9.37;88.99
81033;BME280;70514;52.478;6.102;2024-03-17T09:07:22;102298.31;;;9.52;86.22
81033;BME280;70514;52.478;6.102;2024-03-17T09:09:48;102296.69;;;9.79;85.14
81033;BME280;70514;52.478;6.102;2024-03-17T09:12:15;102292.78;;;9.42;87.10
81033;BME280;70514;52.478;6.102;2024-03-17T09:14:42;102289.69;;;9.74;86.32
81033;BME280;70514;52.478;6.102;2024-03-17T09:17:08;102286.78;;;9.90;84.95
81033;BME280;70514;52.478;6.102;2024-03-17T09:19:35;102290.19;;;9.89;85.71
81033;BME280;70514;52.478;6.102;2024-03-17T09:22:01;102290.94;;;9.61;87.56
81033;BME280;70514;52.478;6.102;2024-03-17T09:24:28;102285.56;;;9.55;86.55
81033;BME280;70514;52.478;6.102;2024-03-17T09:26:54;102283.94;;;9.57;86.23
81033;BME280;70514;52.478;6.102;2024-03-17T09:29:21;102272.09;;;9.62;86.19
81033;BME280;70514;52.478;6.102;2024-03-17T09:31:47;102279.78;;;9.37;86.53
81033;BME280;70514;52.478;6.102;2024-03-17T09:34:15;102266.09;;;9.62;86.20
81033;BME280;70514;52.478;6.102;2024-03-17T09:36:42;102273.31;;;9.97;88.29
81033;BME280;70514;52.478;6.102;2024-03-17T09:39:10;102267.22;;;9.95;84.17
81033;BME280;70514;52.478;6.102;2024-03-17T09:41:37;102271.91;;;9.81;86.44
81033;BME280;70514;52.478;6.102;2024-03-17T09:44:05;102269.13;;;10.01;88.69
81033;BME280;70514;52.478;6.102;2024-03-17T09:46:33;102264.06;;;10.28;85.54
81033;BME280;70514;52.478;6.102;2024-03-17T09:49:00;102256.88;;;10.44;87.75
81033;BME280;70514;52.478;6.102;2024-03-17T09:51:26;102266.38;;;10.47;84.81
81033;BME280;70514;52.478;6.102;2024-03-17T09:53:53;102258.66;;;11.02;83.66
81033;BME280;70514;52.478;6.102;2024-03-17T09:56:20;102258.59;;;11.30;82.60
81033;BME280;70514;52.478;6.102;2024-03-17T09:58:47;102261.28;;;10.48;81.28
81033;BME280;70514;52.478;6.102;2024-03-17T10:01:14;102264.31;;;10.10;83.69
81033;BME280;70514;52.478;6.102;2024-03-17T10:03:50;102270.56;;;10.16;84.09
81033;BME280;70514;52.478;6.102;2024-03-17T10:06:25;102262.78;;;10.69;86.91
81033;BME280;70514;52.478;6.102;2024-03-17T10:08:55;102267.94;;;10.42;81.40
81033;BME280;70514;52.478;6.102;2024-03-17T10:11:56;102263.81;;;10.47;82.24
81033;BME280;70514;52.478;6.102;2024-03-17T10:14:16;102255.66;;;10.33;80.63
81033;BME280;70514;52.478;6.102;2024-03-17T10:16:43;102255.25;;;10.46;84.16
81033;BME280;70514;52.478;6.102;2024-03-17T10:19:14;102262.59;;;10.62;83.83
81033;BME280;70514;52.478;6.102;2024-03-17T10:21:41;102261.69;;;10.60;81.86
81033;BME280;70514;52.478;6.102;2024-03-17T10:26:36;102255.38;;;10.51;80.39
81033;BME280;70514;52.478;6.102;2024-03-17T10:29:02;102255.03;;;10.40;80.99
81033;BME280;70514;52.478;6.102;2024-03-17T10:31:30;102249.91;;;10.42;81.38
81033;BME280;70514;52.478;6.102;2024-03-17T10:34:01;102256.25;;;10.51;81.08
81033;BME280;70514;52.478;6.102;2024-03-17T10:36:27;102254.63;;;10.83;80.07
81033;BME280;70514;52.478;6.102;2024-03-17T10:38:54;102253.75;;;11.11;78.52
81033;BME280;70514;52.478;6.102;2024-03-17T10:41:21;102245.63;;;11.27;80.98
81033;BME280;70514;52.478;6.102;2024-03-17T10:43:48;102255.00;;;11.25;80.09
81033;BME280;70514;52.478;6.102;2024-03-17T10:46:14;102249.47;;;11.12;78.00
81033;BME280;70514;52.478;6.102;2024-03-17T10:48:41;102237.94;;;10.99;77.60
81033;BME280;70514;52.478;6.102;2024-03-17T10:51:11;102226.53;;;10.91;79.03
81033;BME280;70514;52.478;6.102;2024-03-17T10:53:42;102233.78;;;11.04;78.30
81033;BME280;70514;52.478;6.102;2024-03-17T10:56:11;102225.78;;;11.25;82.89
81033;BME280;70514;52.478;6.102;2024-03-17T10:58:39;102227.56;;;11.27;77.03
81033;BME280;70514;52.478;6.102;2024-03-17T11:01:13;102228.53;;;11.01;75.33
81033;BME280;70514;52.478;6.102;2024-03-17T11:03:40;102231.16;;;11.32;77.53
81033;BME280;70514;52.478;6.102;2024-03-17T11:06:07;102231.75;;;10.92;75.13
81033;BME280;70514;52.478;6.102;2024-03-17T11:08:34;102233.25;;;11.16;77.15
81033;BME280;70514;52.478;6.102;2024-03-17T11:11:02;102230.34;;;11.03;75.68
81033;BME280;70514;52.478;6.102;2024-03-17T11:13:30;102222.38;;;11.26;73.96
81033;BME280;70514;52.478;6.102;2024-03-17T11:15:57;102226.06;;;11.35;73.50
81033;BME280;70514;52.478;6.102;2024-03-17T11:18:32;102219.84;;;11.59;79.13
81033;BME280;70514;52.478;6.102;2024-03-17T11:23:26;102227.75;;;11.33;75.05
81033;BME280;70514;52.478;6.102;2024-03-17T11:25:54;102221.00;;;11.71;78.30
81033;BME280;70514;52.478;6.102;2024-03-17T11:31:06;102218.31;;;11.65;69.34
81033;BME280;70514;52.478;6.102;2024-03-17T11:33:52;102223.47;;;11.65;69.73
81033;BME280;70514;52.478;6.102;2024-03-17T11:42:03;102223.53;;;11.68;72.13
81033;BME280;70514;52.478;6.102;2024-03-17T11:51:46;102219.88;;;11.93;72.50
81033;BME280;70514;52.478;6.102;2024-03-17T11:54:17;102221.16;;;11.74;72.20
81033;BME280;70514;52.478;6.102;2024-03-17T11:56:48;102220.66;;;12.25;72.48
81033;BME280;70514;52.478;6.102;2024-03-17T11:59:15;102218.16;;;12.65;74.40
81033;BME280;70514;52.478;6.102;2024-03-17T12:01:47;102221.13;;;12.09;68.64
81033;BME280;70514;52.478;6.102;2024-03-17T12:04:14;102212.75;;;12.17;71.54
81033;BME280;70514;52.478;6.102;2024-03-17T12:06:48;102202.28;;;12.11;68.02
81033;BME280;70514;52.478;6.102;2024-03-17T12:09:28;102198.91;;;11.79;70.22
81033;BME280;70514;52.478;6.102;2024-03-17T12:12:02;102201.03;;;11.96;69.62
81033;BME280;70514;52.478;6.102;2024-03-17T12:14:30;102198.31;;;12.25;71.06
81033;BME280;70514;52.478;6.102;2024-03-17T12:16:58;102187.47;;;12.04;71.27
81033;BME280;70514;52.478;6.102;2024-03-17T12:19:25;102185.25;;;12.19;70.07
81033;BME280;70514;52.478;6.102;2024-03-17T12:21:56;102181.78;;;12.17;69.56
81033;BME280;70514;52.478;6.102;2024-03-17T12:24:24;102186.47;;;11.99;73.74
81033;BME280;70514;52.478;6.102;2024-03-17T12:26:51;102184.53;;;11.89;71.63
81033;BME280;70514;52.478;6.102;2024-03-17T12:31:57;102173.75;;;11.72;70.36
81033;BME280;70514;52.478;6.102;2024-03-17T12:34:25;102160.81;;;11.71;75.55
81033;BME280;70514;52.478;6.102;2024-03-17T12:36:53;102168.19;;;11.57;72.13
81033;BME280;70514;52.478;6.102;2024-03-17T12:39:20;102163.72;;;11.50;72.22
81033;BME280;70514;52.478;6.102;2024-03-17T12:44:33;102156.78;;;11.80;70.89
81033;BME280;70514;52.478;6.102;2024-03-17T12:47:01;102154.41;;;11.89;71.17
81033;BME280;70514;52.478;6.102;2024-03-17T12:49:34;102147.88;;;12.04;72.54
81033;BME280;70514;52.478;6.102;2024-03-17T12:52:01;102141.63;;;11.94;72.24
81033;BME280;70514;52.478;6.102;2024-03-17T12:54:28;102137.16;;;12.24;73.36
81033;BME280;70514;52.478;6.102;2024-03-17T12:57:04;102136.50;;;11.96;71.69
81033;BME280;70514;52.478;6.102;2024-03-17T12:59:50;102127.41;;;12.11;71.81
81033;BME280;70514;52.478;6.102;2024-03-17T13:02:40;102128.63;;;12.28;73.15
81033;BME280;70514;52.478;6.102;2024-03-17T13:05:07;102124.72;;;12.46;72.35
81033;BME280;70514;52.478;6.102;2024-03-17T13:07:37;102113.53;;;12.47;74.08
81033;BME280;70514;52.478;6.102;2024-03-17T13:10:03;102110.31;;;12.57;69.40
81033;BME280;70514;52.478;6.102;2024-03-17T13:12:30;102114.06;;;12.72;68.87
81033;BME280;70514;52.478;6.102;2024-03-17T13:14:56;102109.75;;;12.71;69.79
81033;BME280;70514;52.478;6.102;2024-03-17T13:17:23;102107.53;;;12.91;70.34
81033;BME280;70514;52.478;6.102;2024-03-17T13:19:50;102106.44;;;12.78;70.33
81033;BME280;70514;52.478;6.102;2024-03-17T13:22:16;102111.41;;;12.68;71.11